sensor_id;sensor_type;location;lat;lon;timestamp;temperature;humidity
51007;DHT22;37034;47.886;-3.904;2022-07-29T00:02:17;22.40;66.20
51007;DHT22;37034;47.886;-3.904;2022-07-29T00:04:43;22.30;66.60
51007;DHT22;37034;47.886;-3.904;2022-07-29T00:07:09;22.30;66.30
51007;DHT22;37034;47.886;-3.904;2022-07-29T00:09:34;22.30;66.20
51007;DHT22;37034;47.886;-3.904;2022-07-29T00:12:01;22.30;66.30
51007;DHT22;37034;47.886;-3.904;2022-07-29T00:14:27;22.20;66.30
51007;DHT22;37034;47.886;-3.904;2022-07-29T00:16:52;22.20;66.50
51007;DHT22;37034;47.886;-3.904;2022-07-29T00:19:18;22.20;66.70
51007;DHT22;37034;47.886;-3.904;2022-07-29T00:21:44;22.10;67.60
51007;DHT22;37034;47.886;-3.904;2022-07-29T00:24:09;22.20;68.20
51007;DHT22;37034;47.886;-3.904;2022-07-29T00:26:35;22.20;67.80
51007;DHT22;37034;47.886;-3.904;2022-07-29T00:29:02;22.20;68.20
51007;DHT22;37034;47.886;-3.904;2022-07-29T00:31:28;22.20;68.10
51007;DHT22;37034;47.886;-3.904;2022-07-29T00:33:55;22.10;68.00
51007;DHT22;37034;47.886;-3.904;2022-07-29T00:36:21;22.10;68.30
51007;DHT22;37034;47.886;-3.904;2022-07-29T00:38:47;22.10;68.30
51007;DHT22;37034;47.886;-3.904;2022-07-29T00:41:14;22.10;70.20
51007;DHT22;37034;47.886;-3.904;2022-07-29T00:43:39;22.10;68.30
51007;DHT22;37034;47.886;-3.904;2022-07-29T00:46:06;22.10;68.40
51007;DHT22;37034;47.886;-3.904;2022-07-29T00:48:32;22.10;70.30
51007;DHT22;37034;47.886;-3.904;2022-07-29T00:50:58;22.10;69.00
51007;DHT22;37034;47.886;-3.904;2022-07-29T00:53:25;22.10;68.80
51007;DHT22;37034;47.886;-3.904;2022-07-29T00:55:54;22.10;69.20
51007;DHT22;37034;47.886;-3.904;2022-07-29T00:58:20;22.10;69.10
51007;DHT22;37034;47.886;-3.904;2022-07-29T01:00:46;22.10;69.00
51007;DHT22;37034;47.886;-3.904;2022-07-29T01:03:12;22.00;69.20
51007;DHT22;37034;47.886;-3.904;2022-07-29T01:05:38;22.00;69.30
51007;DHT22;37034;47.886;-3.904;2022-07-29T01:08:05;22.00;69.30
51007;DHT22;37034;47.886;-3.904;2022-07-29T01:10:31;21.90;68.90
51007;DHT22;37034;47.886;-3.904;2022-07-29T01:12:58;21.90;69.50
51007;DHT22;37034;47.886;-3.904;2022-07-29T01:15:24;21.90;69.80
51007;DHT22;37034;47.886;-3.904;2022-07-29T01:18:19;21.90;69.20
51007;DHT22;37034;47.886;-3.904;2022-07-29T01:21:04;21.90;70.50
51007;DHT22;37034;47.886;-3.904;2022-07-29T01:29:38;21.90;71.00
51007;DHT22;37034;47.886;-3.904;2022-07-29T01:32:19;21.90;70.60
51007;DHT22;37034;47.886;-3.904;2022-07-29T01:34:50;21.90;70.10
51007;DHT22;37034;47.886;-3.904;2022-07-29T01:37:26;22.00;70.50
51007;DHT22;37034;47.886;-3.904;2022-07-29T01:39:56;21.90;70.70
51007;DHT22;37034;47.886;-3.904;2022-07-29T01:44:57;22.00;70.50
51007;DHT22;37034;47.886;-3.904;2022-07-29T01:47:31;22.00;70.60
51007;DHT22;37034;47.886;-3.904;2022-07-29T01:49:59;21.90;70.50
51007;DHT22;37034;47.886;-3.904;2022-07-29T01:52:33;21.90;71.00
51007;DHT22;37034;47.886;-3.904;2022-07-29T01:55:15;21.90;71.30
51007;DHT22;37034;47.886;-3.904;2022-07-29T01:57:44;21.80;71.90
51007;DHT22;37034;47.886;-3.904;2022-07-29T02:00:12;21.80;70.90
51007;DHT22;37034;47.886;-3.904;2022-07-29T02:02:40;21.80;71.30
51007;DHT22;37034;47.886;-3.904;2022-07-29T02:05:08;21.70;71.00
51007;DHT22;37034;47.886;-3.904;2022-07-29T02:07:37;21.70;71.10
51007;DHT22;37034;47.886;-3.904;2022-07-29T02:10:04;21.70;71.40
51007;DHT22;37034;47.886;-3.904;2022-07-29T02:12:32;21.60;71.30
51007;DHT22;37034;47.886;-3.904;2022-07-29T02:15:01;21.60;71.60
51007;DHT22;37034;47.886;-3.904;2022-07-29T02:17:33;21.50;71.50
51007;DHT22;37034;47.886;-3.904;2022-07-29T02:20:02;21.50;72.00
51007;DHT22;37034;47.886;-3.904;2022-07-29T02:22:31;21.50;72.30
51007;DHT22;37034;47.886;-3.904;2022-07-29T02:25:00;21.40;72.00
51007;DHT22;37034;47.886;-3.904;2022-07-29T02:27:28;21.40;72.60
51007;DHT22;37034;47.886;-3.904;2022-07-29T02:29:54;21.40;72.40
51007;DHT22;37034;47.886;-3.904;2022-07-29T02:32:24;21.40;72.90
51007;DHT22;37034;47.886;-3.904;2022-07-29T02:34:51;21.40;72.70
51007;DHT22;37034;47.886;-3.904;2022-07-29T02:37:18;21.30;72.60
51007;DHT22;37034;47.886;-3.904;2022-07-29T02:39:44;21.30;72.60
51007;DHT22;37034;47.886;-3.904;2022-07-29T02:42:13;21.30;72.60
51007;DHT22;37034;47.886;-3.904;2022-07-29T02:44:40;21.30;72.60
51007;DHT22;37034;47.886;-3.904;2022-07-29T02:47:18;21.30;72.50
51007;DHT22;37034;47.886;-3.904;2022-07-29T02:52:39;21.20;73.20
51007;DHT22;37034;47.886;-3.904;2022-07-29T02:55:25;21.20;73.60
51007;DHT22;37034;47.886;-3.904;2022-07-29T02:57:59;21.20;73.60
51007;DHT22;37034;47.886;-3.904;2022-07-29T03:00:28;21.20;73.10
51007;DHT22;37034;47.886;-3.904;2022-07-29T03:02:56;21.20;73.30
51007;DHT22;37034;47.886;-3.904;2022-07-29T03:05:24;21.10;73.30
51007;DHT22;37034;47.886;-3.904;2022-07-29T03:08:00;21.20;73.10
51007;DHT22;37034;47.886;-3.904;2022-07-29T03:10:26;21.10;73.60
51007;DHT22;37034;47.886;-3.904;2022-07-29T03:12:54;21.10;73.30
51007;DHT22;37034;47.886;-3.904;2022-07-29T03:15:21;21.10;73.20
51007;DHT22;37034;47.886;-3.904;2022-07-29T03:17:47;21.10;73.30
51007;DHT22;37034;47.886;-3.904;2022-07-29T03:20:13;21.10;73.00
51007;DHT22;37034;47.886;-3.904;2022-07-29T03:22:43;21.20;73.20
51007;DHT22;37034;47.886;-3.904;2022-07-29T03:25:10;21.10;72.90
51007;DHT22;37034;47.886;-3.904;2022-07-29T03:27:36;21.10;72.90
51007;DHT22;37034;47.886;-3.904;2022-07-29T03:30:03;21.10;73.00
51007;DHT22;37034;47.886;-3.904;2022-07-29T03:32:28;21.10;73.20
51007;DHT22;37034;47.886;-3.904;2022-07-29T03:34:54;21.20;73.90
51007;DHT22;37034;47.886;-3.904;2022-07-29T03:37:19;21.20;72.90
51007;DHT22;37034;47.886;-3.904;2022-07-29T03:39:45;21.20;72.90
51007;DHT22;37034;47.886;-3.904;2022-07-29T03:42:15;21.10;72.90
51007;DHT22;37034;47.886;-3.904;2022-07-29T03:44:44;21.10;73.50
51007;DHT22;37034;47.886;-3.904;2022-07-29T03:47:13;21.00;73.30
51007;DHT22;37034;47.886;-3.904;2022-07-29T03:49:41;21.00;73.40
51007;DHT22;37034;47.886;-3.904;2022-07-29T03:52:07;21.00;73.30
51007;DHT22;37034;47.886;-3.904;2022-07-29T03:54:33;21.00;73.30
51007;DHT22;37034;47.886;-3.904;2022-07-29T03:57:01;21.00;73.20
51007;DHT22;37034;47.886;-3.904;2022-07-29T03:59:27;21.00;73.20
51007;DHT22;37034;47.886;-3.904;2022-07-29T04:01:53;21.00;73.30
51007;DHT22;37034;47.886;-3.904;2022-07-29T04:04:21;21.00;73.40
51007;DHT22;37034;47.886;-3.904;2022-07-29T04:06:47;21.00;73.30
51007;DHT22;37034;47.886;-3.904;2022-07-29T04:09:12;21.00;73.50
51007;DHT22;37034;47.886;-3.904;2022-07-29T04:11:40;21.00;73.10
51007;DHT22;37034;47.886;-3.904;2022-07-29T04:14:06;20.90;73.20
51007;DHT22;37034;47.886;-3.904;2022-07-29T04:16:32;20.90;73.40
51007;DHT22;37034;47.886;-3.904;2022-07-29T04:18:58;20.90;73.40
51007;DHT22;37034;47.886;-3.904;2022-07-29T04:21:24;20.90;73.40
51007;DHT22;37034;47.886;-3.904;2022-07-29T04:23:49;20.90;73.90
51007;DHT22;37034;47.886;-3.904;2022-07-29T04:26:16;20.90;73.10
51007;DHT22;37034;47.886;-3.904;2022-07-29T04:28:42;20.90;73.30
51007;DHT22;37034;47.886;-3.904;2022-07-29T04:31:09;20.90;73.30
51007;DHT22;37034;47.886;-3.904;2022-07-29T04:33:34;20.90;73.20
51007;DHT22;37034;47.886;-3.904;2022-07-29T04:36:00;20.90;73.10
51007;DHT22;37034;47.886;-3.904;2022-07-29T04:38:26;20.90;73.00
51007;DHT22;37034;47.886;-3.904;2022-07-29T04:40:51;21.00;73.20
51007;DHT22;37034;47.886;-3.904;2022-07-29T04:43:17;20.90;73.60
51007;DHT22;37034;47.886;-3.904;2022-07-29T04:45:43;20.90;73.10
51007;DHT22;37034;47.886;-3.904;2022-07-29T04:48:08;21.00;73.10
51007;DHT22;37034;47.886;-3.904;2022-07-29T04:50:34;21.00;73.10
51007;DHT22;37034;47.886;-3.904;2022-07-29T04:53:02;21.00;72.90
51007;DHT22;37034;47.886;-3.904;2022-07-29T04:55:28;20.90;72.80
51007;DHT22;37034;47.886;-3.904;2022-07-29T04:57:54;20.90;72.90
51007;DHT22;37034;47.886;-3.904;2022-07-29T05:00:19;20.90;72.60
51007;DHT22;37034;47.886;-3.904;2022-07-29T05:02:45;20.90;72.70
51007;DHT22;37034;47.886;-3.904;2022-07-29T05:05:11;20.90;72.70
51007;DHT22;37034;47.886;-3.904;2022-07-29T05:07:36;20.90;72.50
51007;DHT22;37034;47.886;-3.904;2022-07-29T05:10:02;21.00;72.80
51007;DHT22;37034;47.886;-3.904;2022-07-29T05:12:28;21.00;72.60
51007;DHT22;37034;47.886;-3.904;2022-07-29T05:14:54;21.00;72.60
51007;DHT22;37034;47.886;-3.904;2022-07-29T05:17:20;21.00;72.70
51007;DHT22;37034;47.886;-3.904;2022-07-29T05:19:46;21.10;72.60
51007;DHT22;37034;47.886;-3.904;2022-07-29T05:22:11;21.10;72.60
51007;DHT22;37034;47.886;-3.904;2022-07-29T05:24:37;21.10;72.60
51007;DHT22;37034;47.886;-3.904;2022-07-29T05:27:03;21.10;72.40
51007;DHT22;37034;47.886;-3.904;2022-07-29T05:29:29;21.10;72.40
51007;DHT22;37034;47.886;-3.904;2022-07-29T05:31:54;21.20;72.40
51007;DHT22;37034;47.886;-3.904;2022-07-29T05:34:20;21.20;72.90
51007;DHT22;37034;47.886;-3.904;2022-07-29T05:36:46;21.20;72.10
51007;DHT22;37034;47.886;-3.904;2022-07-29T05:39:11;21.20;72.00
51007;DHT22;37034;47.886;-3.904;2022-07-29T05:41:38;21.20;71.90
51007;DHT22;37034;47.886;-3.904;2022-07-29T05:44:04;21.20;71.90
51007;DHT22;37034;47.886;-3.904;2022-07-29T05:46:30;21.30;72.00
51007;DHT22;37034;47.886;-3.904;2022-07-29T05:48:55;21.30;71.80
51007;DHT22;37034;47.886;-3.904;2022-07-29T05:51:21;21.40;72.00
51007;DHT22;37034;47.886;-3.904;2022-07-29T05:53:47;21.40;72.10
51007;DHT22;37034;47.886;-3.904;2022-07-29T05:56:13;21.50;72.00
51007;DHT22;37034;47.886;-3.904;2022-07-29T05:58:38;21.50;71.90
51007;DHT22;37034;47.886;-3.904;2022-07-29T06:01:04;21.60;71.80
51007;DHT22;37034;47.886;-3.904;2022-07-29T06:03:30;21.60;71.80
51007;DHT22;37034;47.886;-3.904;2022-07-29T06:05:55;21.60;71.40
51007;DHT22;37034;47.886;-3.904;2022-07-29T06:08:21;21.60;71.30
51007;DHT22;37034;47.886;-3.904;2022-07-29T06:10:47;21.60;71.60
51007;DHT22;37034;47.886;-3.904;2022-07-29T06:13:13;21.70;71.40
51007;DHT22;37034;47.886;-3.904;2022-07-29T06:15:41;21.70;71.50
51007;DHT22;37034;47.886;-3.904;2022-07-29T06:18:07;21.70;71.30
51007;DHT22;37034;47.886;-3.904;2022-07-29T06:20:34;21.80;71.40
51007;DHT22;37034;47.886;-3.904;2022-07-29T06:23:00;21.90;71.30
51007;DHT22;37034;47.886;-3.904;2022-07-29T06:25:27;21.90;70.90
51007;DHT22;37034;47.886;-3.904;2022-07-29T06:27:56;21.90;70.80
51007;DHT22;37034;47.886;-3.904;2022-07-29T06:30:22;22.00;70.80
51007;DHT22;37034;47.886;-3.904;2022-07-29T06:32:47;22.00;70.80
51007;DHT22;37034;47.886;-3.904;2022-07-29T06:35:13;22.10;70.70
51007;DHT22;37034;47.886;-3.904;2022-07-29T06:37:39;22.10;70.50
51007;DHT22;37034;47.886;-3.904;2022-07-29T06:40:05;22.20;70.60
51007;DHT22;37034;47.886;-3.904;2022-07-29T06:42:49;22.30;70.50
51007;DHT22;37034;47.886;-3.904;2022-07-29T06:45:15;22.40;70.90
51007;DHT22;37034;47.886;-3.904;2022-07-29T06:47:41;22.50;70.70
51007;DHT22;37034;47.886;-3.904;2022-07-29T06:50:07;22.60;70.10
51007;DHT22;37034;47.886;-3.904;2022-07-29T06:52:37;22.80;70.00
51007;DHT22;37034;47.886;-3.904;2022-07-29T06:55:02;22.90;69.80
51007;DHT22;37034;47.886;-3.904;2022-07-29T06:57:28;23.00;69.00
51007;DHT22;37034;47.886;-3.904;2022-07-29T06:59:56;23.10;69.30
51007;DHT22;37034;47.886;-3.904;2022-07-29T07:02:22;23.20;69.20
51007;DHT22;37034;47.886;-3.904;2022-07-29T07:04:48;23.30;68.90
51007;DHT22;37034;47.886;-3.904;2022-07-29T07:07:13;23.30;68.90
51007;DHT22;37034;47.886;-3.904;2022-07-29T07:09:39;23.40;68.60
51007;DHT22;37034;47.886;-3.904;2022-07-29T07:12:05;23.50;68.60
51007;DHT22;37034;47.886;-3.904;2022-07-29T07:14:31;23.50;68.70
51007;DHT22;37034;47.886;-3.904;2022-07-29T07:16:56;23.60;68.40
51007;DHT22;37034;47.886;-3.904;2022-07-29T07:19:22;23.60;68.20
51007;DHT22;37034;47.886;-3.904;2022-07-29T07:21:48;23.60;67.90
51007;DHT22;37034;47.886;-3.904;2022-07-29T07:24:13;23.60;67.30
51007;DHT22;37034;47.886;-3.904;2022-07-29T07:26:39;23.60;68.00
51007;DHT22;37034;47.886;-3.904;2022-07-29T07:29:05;23.70;67.90
51007;DHT22;37034;47.886;-3.904;2022-07-29T07:31:31;23.80;68.30
51007;DHT22;37034;47.886;-3.904;2022-07-29T07:33:57;23.90;68.40
51007;DHT22;37034;47.886;-3.904;2022-07-29T07:36:23;24.00;68.30
51007;DHT22;37034;47.886;-3.904;2022-07-29T07:38:49;24.10;68.00
51007;DHT22;37034;47.886;-3.904;2022-07-29T07:41:15;24.10;67.80
51007;DHT22;37034;47.886;-3.904;2022-07-29T07:43:40;24.20;68.00
51007;DHT22;37034;47.886;-3.904;2022-07-29T07:46:06;24.30;67.70
51007;DHT22;37034;47.886;-3.904;2022-07-29T07:48:32;24.30;67.20
51007;DHT22;37034;47.886;-3.904;2022-07-29T07:51:00;24.40;67.20
51007;DHT22;37034;47.886;-3.904;2022-07-29T07:53:26;24.40;67.20
51007;DHT22;37034;47.886;-3.904;2022-07-29T07:55:51;24.40;67.30
51007;DHT22;37034;47.886;-3.904;2022-07-29T07:58:17;24.50;67.70
51007;DHT22;37034;47.886;-3.904;2022-07-29T08:00:43;24.60;67.30
51007;DHT22;37034;47.886;-3.904;2022-07-29T08:03:08;24.60;67.50
51007;DHT22;37034;47.886;-3.904;2022-07-29T08:05:38;24.60;67.60
51007;DHT22;37034;47.886;-3.904;2022-07-29T08:08:04;24.80;67.60
51007;DHT22;37034;47.886;-3.904;2022-07-29T08:10:29;24.90;67.70
51007;DHT22;37034;47.886;-3.904;2022-07-29T08:13:14;25.10;67.30
51007;DHT22;37034;47.886;-3.904;2022-07-29T08:15:40;25.30;67.30
51007;DHT22;37034;47.886;-3.904;2022-07-29T08:18:07;25.40;67.50
51007;DHT22;37034;47.886;-3.904;2022-07-29T08:20:33;25.60;66.80
51007;DHT22;37034;47.886;-3.904;2022-07-29T08:23:01;25.80;66.80
51007;DHT22;37034;47.886;-3.904;2022-07-29T08:25:27;25.90;66.80
51007;DHT22;37034;47.886;-3.904;2022-07-29T08:27:53;26.10;66.40
51007;DHT22;37034;47.886;-3.904;2022-07-29T08:30:18;26.20;66.60
51007;DHT22;37034;47.886;-3.904;2022-07-29T08:32:44;26.30;65.30
51007;DHT22;37034;47.886;-3.904;2022-07-29T08:35:10;26.40;65.70
51007;DHT22;37034;47.886;-3.904;2022-07-29T08:37:35;26.50;66.10
51007;DHT22;37034;47.886;-3.904;2022-07-29T08:40:02;26.70;65.40
51007;DHT22;37034;47.886;-3.904;2022-07-29T08:42:27;26.70;64.90
51007;DHT22;37034;47.886;-3.904;2022-07-29T08:44:53;26.60;63.40
51007;DHT22;37034;47.886;-3.904;2022-07-29T08:47:20;26.60;64.20
51007;DHT22;37034;47.886;-3.904;2022-07-29T08:49:45;26.70;64.50
51007;DHT22;37034;47.886;-3.904;2022-07-29T08:52:13;26.70;64.90
51007;DHT22;37034;47.886;-3.904;2022-07-29T08:54:43;26.90;64.40
51007;DHT22;37034;47.886;-3.904;2022-07-29T08:57:12;27.00;63.20
51007;DHT22;37034;47.886;-3.904;2022-07-29T08:59:40;27.20;63.60
51007;DHT22;37034;47.886;-3.904;2022-07-29T09:02:20;27.30;63.40
51007;DHT22;37034;47.886;-3.904;2022-07-29T09:04:47;27.40;62.80
51007;DHT22;37034;47.886;-3.904;2022-07-29T09:07:17;27.50;62.90
51007;DHT22;37034;47.886;-3.904;2022-07-29T09:09:43;27.60;61.20
51007;DHT22;37034;47.886;-3.904;2022-07-29T09:12:12;27.60;60.50
51007;DHT22;37034;47.886;-3.904;2022-07-29T09:14:41;27.60;61.00
51007;DHT22;37034;47.886;-3.904;2022-07-29T09:17:07;27.70;60.00
51007;DHT22;37034;47.886;-3.904;2022-07-29T09:19:34;27.80;61.00
51007;DHT22;37034;47.886;-3.904;2022-07-29T09:22:05;27.90;60.60
51007;DHT22;37034;47.886;-3.904;2022-07-29T09:24:40;28.00;60.50
51007;DHT22;37034;47.886;-3.904;2022-07-29T09:27:20;28.10;59.60
51007;DHT22;37034;47.886;-3.904;2022-07-29T09:29:47;28.20;60.00
51007;DHT22;37034;47.886;-3.904;2022-07-29T09:32:13;28.40;59.20
51007;DHT22;37034;47.886;-3.904;2022-07-29T09:34:38;28.40;59.10
51007;DHT22;37034;47.886;-3.904;2022-07-29T09:37:04;28.40;59.50
51007;DHT22;37034;47.886;-3.904;2022-07-29T09:39:37;28.50;58.90
51007;DHT22;37034;47.886;-3.904;2022-07-29T09:42:11;28.50;58.90
51007;DHT22;37034;47.886;-3.904;2022-07-29T09:44:49;28.70;59.80
51007;DHT22;37034;47.886;-3.904;2022-07-29T09:47:17;28.90;58.30
51007;DHT22;37034;47.886;-3.904;2022-07-29T09:49:59;28.90;58.70
51007;DHT22;37034;47.886;-3.904;2022-07-29T09:52:29;28.80;57.50
51007;DHT22;37034;47.886;-3.904;2022-07-29T09:55:08;28.80;58.00
51007;DHT22;37034;47.886;-3.904;2022-07-29T09:57:34;28.90;57.80
51007;DHT22;37034;47.886;-3.904;2022-07-29T10:00:01;28.90;58.30
51007;DHT22;37034;47.886;-3.904;2022-07-29T10:02:32;29.10;57.80
51007;DHT22;37034;47.886;-3.904;2022-07-29T10:05:00;29.00;57.90
51007;DHT22;37034;47.886;-3.904;2022-07-29T10:07:28;28.80;57.70
51007;DHT22;37034;47.886;-3.904;2022-07-29T10:10:07;28.60;58.60
51007;DHT22;37034;47.886;-3.904;2022-07-29T10:12:33;28.40;58.50
51007;DHT22;37034;47.886;-3.904;2022-07-29T10:15:01;28.40;58.60
51007;DHT22;37034;47.886;-3.904;2022-07-29T10:17:28;28.50;58.50
51007;DHT22;37034;47.886;-3.904;2022-07-29T10:19:54;28.40;58.40
51007;DHT22;37034;47.886;-3.904;2022-07-29T10:22:20;28.50;58.90
51007;DHT22;37034;47.886;-3.904;2022-07-29T10:24:46;28.30;58.60
51007;DHT22;37034;47.886;-3.904;2022-07-29T10:27:13;28.50;57.50
51007;DHT22;37034;47.886;-3.904;2022-07-29T10:29:39;28.60;58.40
51007;DHT22;37034;47.886;-3.904;2022-07-29T10:38:21;28.90;57.80
51007;DHT22;37034;47.886;-3.904;2022-07-29T10:43:48;28.50;57.70
51007;DHT22;37034;47.886;-3.904;2022-07-29T10:46:14;27.90;58.50
51007;DHT22;37034;47.886;-3.904;2022-07-29T10:54:43;27.70;60.20
51007;DHT22;37034;47.886;-3.904;2022-07-29T10:57:23;28.20;58.50
51007;DHT22;37034;47.886;-3.904;2022-07-29T11:04:58;28.70;57.00
51007;DHT22;37034;47.886;-3.904;2022-07-29T11:07:26;28.80;57.10
51007;DHT22;37034;47.886;-3.904;2022-07-29T11:15:17;29.20;56.50
51007;DHT22;37034;47.886;-3.904;2022-07-29T11:23:29;29.60;56.40
51007;DHT22;37034;47.886;-3.904;2022-07-29T11:26:14;29.70;56.30
51007;DHT22;37034;47.886;-3.904;2022-07-29T11:31:43;29.90;55.40
51007;DHT22;37034;47.886;-3.904;2022-07-29T11:34:29;29.90;55.20
51007;DHT22;37034;47.886;-3.904;2022-07-29T11:50:12;30.10;55.00
51007;DHT22;37034;47.886;-3.904;2022-07-29T11:52:40;30.20;55.40
51007;DHT22;37034;47.886;-3.904;2022-07-29T11:55:29;30.30;54.70
51007;DHT22;37034;47.886;-3.904;2022-07-29T11:58:00;30.30;54.70
51007;DHT22;37034;47.886;-3.904;2022-07-29T12:00:33;30.40;54.60
51007;DHT22;37034;47.886;-3.904;2022-07-29T12:03:02;30.40;54.50
51007;DHT22;37034;47.886;-3.904;2022-07-29T12:05:43;30.30;54.00
51007;DHT22;37034;47.886;-3.904;2022-07-29T12:08:18;29.90;54.40
51007;DHT22;37034;47.886;-3.904;2022-07-29T12:10:46;29.80;54.90
51007;DHT22;37034;47.886;-3.904;2022-07-29T12:13:13;29.80;55.20
51007;DHT22;37034;47.886;-3.904;2022-07-29T12:15:40;29.80;54.70
51007;DHT22;37034;47.886;-3.904;2022-07-29T12:18:22;29.70;55.00
51007;DHT22;37034;47.886;-3.904;2022-07-29T12:20:48;29.70;54.80
51007;DHT22;37034;47.886;-3.904;2022-07-29T12:23:21;29.50;54.50
51007;DHT22;37034;47.886;-3.904;2022-07-29T12:25:46;29.20;54.50
51007;DHT22;37034;47.886;-3.904;2022-07-29T12:28:14;29.30;55.00
51007;DHT22;37034;47.886;-3.904;2022-07-29T12:30:46;29.40;54.80
51007;DHT22;37034;47.886;-3.904;2022-07-29T12:33:19;29.40;55.30
51007;DHT22;37034;47.886;-3.904;2022-07-29T12:35:59;29.40;54.70
51007;DHT22;37034;47.886;-3.904;2022-07-29T12:38:26;29.30;54.60
51007;DHT22;37034;47.886;-3.904;2022-07-29T12:40:53;29.20;54.30
51007;DHT22;37034;47.886;-3.904;2022-07-29T12:43:23;29.30;55.20
51007;DHT22;37034;47.886;-3.904;2022-07-29T12:45:51;29.40;54.80
51007;DHT22;37034;47.886;-3.904;2022-07-29T12:48:32;29.30;54.90
51007;DHT22;37034;47.886;-3.904;2022-07-29T12:51:03;29.30;54.50
51007;DHT22;37034;47.886;-3.904;2022-07-29T12:53:30;29.30;55.10
51007;DHT22;37034;47.886;-3.904;2022-07-29T12:55:57;29.10;54.60
51007;DHT22;37034;47.886;-3.904;2022-07-29T13:01:16;28.90;55.60
51007;DHT22;37034;47.886;-3.904;2022-07-29T13:03:57;28.80;55.00
51007;DHT22;37034;47.886;-3.904;2022-07-29T13:09:12;28.70;55.60
51007;DHT22;37034;47.886;-3.904;2022-07-29T13:11:40;28.70;55.90
51007;DHT22;37034;47.886;-3.904;2022-07-29T13:14:11;28.80;55.60
51007;DHT22;37034;47.886;-3.904;2022-07-29T13:19:41;28.80;55.40
51007;DHT22;37034;47.886;-3.904;2022-07-29T13:22:12;28.80;55.30
51007;DHT22;37034;47.886;-3.904;2022-07-29T13:24:53;28.60;55.10
51007;DHT22;37034;47.886;-3.904;2022-07-29T13:27:39;28.50;55.60
51007;DHT22;37034;47.886;-3.904;2022-07-29T13:30:11;28.80;54.90
51007;DHT22;37034;47.886;-3.904;2022-07-29T13:32:36;28.60;54.60
51007;DHT22;37034;47.886;-3.904;2022-07-29T13:35:05;28.60;54.70
51007;DHT22;37034;47.886;-3.904;2022-07-29T13:37:33;28.50;54.80
51007;DHT22;37034;47.886;-3.904;2022-07-29T13:40:03;28.30;54.70
51007;DHT22;37034;47.886;-3.904;2022-07-29T13:42:29;28.10;55.40
51007;DHT22;37034;47.886;-3.904;2022-07-29T13:44:55;28.20;55.60
51007;DHT22;37034;47.886;-3.904;2022-07-29T13:47:21;28.40;55.10
51007;DHT22;37034;47.886;-3.904;2022-07-29T13:49:47;28.60;54.90
51007;DHT22;37034;47.886;-3.904;2022-07-29T13:52:13;28.70;54.60
51007;DHT22;37034;47.886;-3.904;2022-07-29T13:54:39;28.90;55.00
51007;DHT22;37034;47.886;-3.904;2022-07-29T13:57:05;29.00;54.70
51007;DHT22;37034;47.886;-3.904;2022-07-29T13:59:30;29.00;54.90
51007;DHT22;37034;47.886;-3.904;2022-07-29T14:01:56;28.90;54.30
51007;DHT22;37034;47.886;-3.904;2022-07-29T14:04:22;28.90;54.70
51007;DHT22;37034;47.886;-3.904;2022-07-29T14:06:49;29.10;54.50
51007;DHT22;37034;47.886;-3.904;2022-07-29T14:09:15;29.10;54.30
51007;DHT22;37034;47.886;-3.904;2022-07-29T14:11:40;29.10;54.50
51007;DHT22;37034;47.886;-3.904;2022-07-29T14:14:06;29.00;54.60
51007;DHT22;37034;47.886;-3.904;2022-07-29T14:16:32;29.10;55.00
51007;DHT22;37034;47.886;-3.904;2022-07-29T14:18:57;29.20;55.10
51007;DHT22;37034;47.886;-3.904;2022-07-29T14:21:23;29.10;55.20
51007;DHT22;37034;47.886;-3.904;2022-07-29T14:23:49;29.20;55.20
51007;DHT22;37034;47.886;-3.904;2022-07-29T14:26:14;29.30;55.10
51007;DHT22;37034;47.886;-3.904;2022-07-29T14:28:40;29.20;55.40
51007;DHT22;37034;47.886;-3.904;2022-07-29T14:31:05;29.10;55.50
51007;DHT22;37034;47.886;-3.904;2022-07-29T14:33:31;29.10;55.60
51007;DHT22;37034;47.886;-3.904;2022-07-29T14:35:57;29.20;55.60
51007;DHT22;37034;47.886;-3.904;2022-07-29T14:38:22;29.20;55.30
51007;DHT22;37034;47.886;-3.904;2022-07-29T14:40:48;29.20;55.50
51007;DHT22;37034;47.886;-3.904;2022-07-29T14:43:14;29.10;55.70
51007;DHT22;37034;47.886;-3.904;2022-07-29T14:45:39;29.10;55.90
51007;DHT22;37034;47.886;-3.904;2022-07-29T14:48:05;29.10;55.80
51007;DHT22;37034;47.886;-3.904;2022-07-29T14:50:31;29.00;55.50
51007;DHT22;37034;47.886;-3.904;2022-07-29T14:52:57;29.00;55.60
51007;DHT22;37034;47.886;-3.904;2022-07-29T14:55:23;29.00;55.60
51007;DHT22;37034;47.886;-3.904;2022-07-29T14:57:48;29.00;55.80
51007;DHT22;37034;47.886;-3.904;2022-07-29T15:00:16;29.30;55.70
51007;DHT22;37034;47.886;-3.904;2022-07-29T15:02:42;29.40;55.30
51007;DHT22;37034;47.886;-3.904;2022-07-29T15:05:07;29.30;55.50
51007;DHT22;37034;47.886;-3.904;2022-07-29T15:07:33;29.30;55.20
51007;DHT22;37034;47.886;-3.904;2022-07-29T15:09:59;29.20;55.50
51007;DHT22;37034;47.886;-3.904;2022-07-29T15:12:24;29.30;55.40
51007;DHT22;37034;47.886;-3.904;2022-07-29T15:14:50;29.50;55.50
51007;DHT22;37034;47.886;-3.904;2022-07-29T15:17:16;29.40;55.50
51007;DHT22;37034;47.886;-3.904;2022-07-29T15:19:41;29.60;55.40
51007;DHT22;37034;47.886;-3.904;2022-07-29T15:22:07;29.90;55.30
51007;DHT22;37034;47.886;-3.904;2022-07-29T15:24:32;30.20;54.90
51007;DHT22;37034;47.886;-3.904;2022-07-29T15:26:58;30.20;54.70
51007;DHT22;37034;47.886;-3.904;2022-07-29T15:29:24;30.20;54.50
51007;DHT22;37034;47.886;-3.904;2022-07-29T15:31:49;30.30;54.50
51007;DHT22;37034;47.886;-3.904;2022-07-29T15:34:15;30.40;54.30
51007;DHT22;37034;47.886;-3.904;2022-07-29T15:36:41;30.30;54.30
51007;DHT22;37034;47.886;-3.904;2022-07-29T15:39:06;30.30;54.40
51007;DHT22;37034;47.886;-3.904;2022-07-29T15:41:33;30.40;53.60
51007;DHT22;37034;47.886;-3.904;2022-07-29T15:43:59;30.40;53.50
51007;DHT22;37034;47.886;-3.904;2022-07-29T15:46:24;30.20;53.80
51007;DHT22;37034;47.886;-3.904;2022-07-29T15:49:09;29.90;53.40
51007;DHT22;37034;47.886;-3.904;2022-07-29T15:51:34;29.60;53.70
51007;DHT22;37034;47.886;-3.904;2022-07-29T15:54:01;29.60;54.20
51007;DHT22;37034;47.886;-3.904;2022-07-29T15:56:28;29.80;53.80
51007;DHT22;37034;47.886;-3.904;2022-07-29T15:58:54;29.80;54.00
51007;DHT22;37034;47.886;-3.904;2022-07-29T16:01:19;29.80;53.90
51007;DHT22;37034;47.886;-3.904;2022-07-29T16:03:46;29.70;53.70
51007;DHT22;37034;47.886;-3.904;2022-07-29T16:06:12;29.80;53.80
51007;DHT22;37034;47.886;-3.904;2022-07-29T16:08:38;29.80;53.80
51007;DHT22;37034;47.886;-3.904;2022-07-29T16:11:03;29.70;53.50
51007;DHT22;37034;47.886;-3.904;2022-07-29T16:13:29;29.60;53.60
51007;DHT22;37034;47.886;-3.904;2022-07-29T16:15:54;29.60;53.60
51007;DHT22;37034;47.886;-3.904;2022-07-29T16:18:20;29.70;53.30
51007;DHT22;37034;47.886;-3.904;2022-07-29T16:20:45;29.80;53.40
51007;DHT22;37034;47.886;-3.904;2022-07-29T16:23:11;29.90;53.20
51007;DHT22;37034;47.886;-3.904;2022-07-29T16:25:37;30.10;53.50
51007;DHT22;37034;47.886;-3.904;2022-07-29T16:28:03;30.00;53.30